sensor_id;sensor_type;location;lat;lon;timestamp;P1;durP1;ratioP1;P2;durP2;ratioP2
23490;SDS011;14683;50.038;8.078;2023-03-12T06:06:16;7.60;;;4.28;;
23490;SDS011;14683;50.038;8.078;2023-03-12T06:08:42;7.43;;;4.30;;
23490;SDS011;14683;50.038;8.078;2023-03-12T06:11:10;8.75;;;4.30;;
23490;SDS011;14683;50.038;8.078;2023-03-12T06:13:37;11.10;;;4.50;;
23490;SDS011;14683;50.038;8.078;2023-03-12T06:16:07;5.00;;;3.72;;
23490;SDS011;14683;50.038;8.078;2023-03-12T06:18:35;7.28;;;4.13;;
23490;SDS011;14683;50.038;8.078;2023-03-12T06:23:34;10.23;;;4.15;;
23490;SDS011;14683;50.038;8.078;2023-03-12T06:26:00;8.18;;;4.30;;
23490;SDS011;14683;50.038;8.078;2023-03-12T06:28:26;9.82;;;4.30;;
23490;SDS011;14683;50.038;8.078;2023-03-12T06:30:53;6.68;;;4.10;;
23490;SDS011;14683;50.038;8.078;2023-03-12T06:33:19;11.07;;;4.70;;
23490;SDS011;14683;50.038;8.078;2023-03-12T06:35:45;13.90;;;4.75;;
23490;SDS011;14683;50.038;8.078;2023-03-12T06:38:11;8.82;;;4.18;;
23490;SDS011;14683;50.038;8.078;2023-03-12T06:40:37;13.55;;;4.57;;
23490;SDS011;14683;50.038;8.078;2023-03-12T06:43:03;11.50;;;4.40;;
23490;SDS011;14683;50.038;8.078;2023-03-12T06:45:29;9.15;;;4.43;;
23490;SDS011;14683;50.038;8.078;2023-03-12T06:47:55;7.32;;;4.57;;
23490;SDS011;14683;50.038;8.078;2023-03-12T06:50:21;10.85;;;4.95;;
23490;SDS011;14683;50.038;8.078;2023-03-12T06:52:47;11.38;;;4.80;;
23490;SDS011;14683;50.038;8.078;2023-03-12T06:55:13;16.00;;;5.63;;
23490;SDS011;14683;50.038;8.078;2023-03-12T06:57:39;9.65;;;4.53;;
23490;SDS011;14683;50.038;8.078;2023-03-12T07:00:05;10.30;;;5.38;;
23490;SDS011;14683;50.038;8.078;2023-03-12T07:02:32;10.82;;;5.72;;
23490;SDS011;14683;50.038;8.078;2023-03-12T07:04:58;15.57;;;6.40;;
23490;SDS011;14683;50.038;8.078;2023-03-12T07:07:24;11.15;;;6.57;;
23490;SDS011;14683;50.038;8.078;2023-03-12T07:09:50;12.65;;;7.57;;
23490;SDS011;14683;50.038;8.078;2023-03-12T07:12:16;13.00;;;7.72;;
23490;SDS011;14683;50.038;8.078;2023-03-12T07:14:42;22.55;;;12.25;;
23490;SDS011;14683;50.038;8.078;2023-03-12T07:17:08;24.83;;;11.73;;
23490;SDS011;14683;50.038;8.078;2023-03-12T07:19:34;23.42;;;12.35;;
23490;SDS011;14683;50.038;8.078;2023-03-12T07:22:00;18.42;;;9.98;;
23490;SDS011;14683;50.038;8.078;2023-03-12T07:24:26;19.20;;;10.23;;
23490;SDS011;14683;50.038;8.078;2023-03-12T07:26:52;20.25;;;10.93;;
23490;SDS011;14683;50.038;8.078;2023-03-12T07:29:18;20.50;;;11.45;;
23490;SDS011;14683;50.038;8.078;2023-03-12T07:31:44;15.45;;;9.55;;
23490;SDS011;14683;50.038;8.078;2023-03-12T07:34:10;14.23;;;10.13;;
23490;SDS011;14683;50.038;8.078;2023-03-12T07:36:36;19.27;;;9.57;;
23490;SDS011;14683;50.038;8.078;2023-03-12T07:39:02;22.75;;;10.00;;
23490;SDS011;14683;50.038;8.078;2023-03-12T07:41:29;24.13;;;11.27;;
23490;SDS011;14683;50.038;8.078;2023-03-12T07:43:55;21.33;;;12.70;;
23490;SDS011;14683;50.038;8.078;2023-03-12T07:46:21;19.52;;;11.35;;
23490;SDS011;14683;50.038;8.078;2023-03-12T07:48:47;22.00;;;12.18;;
23490;SDS011;14683;50.038;8.078;2023-03-12T07:51:13;16.77;;;11.40;;
23490;SDS011;14683;50.038;8.078;2023-03-12T07:53:39;20.02;;;12.65;;
23490;SDS011;14683;50.038;8.078;2023-03-12T07:56:05;21.50;;;11.73;;
23490;SDS011;14683;50.038;8.078;2023-03-12T07:58:32;21.88;;;12.02;;
23490;SDS011;14683;50.038;8.078;2023-03-12T08:01:01;20.23;;;11.48;;
23490;SDS011;14683;50.038;8.078;2023-03-12T08:03:27;18.30;;;11.55;;
23490;SDS011;14683;50.038;8.078;2023-03-12T08:06:00;23.38;;;11.60;;
23490;SDS011;14683;50.038;8.078;2023-03-12T08:08:27;22.02;;;11.10;;
23490;SDS011;14683;50.038;8.078;2023-03-12T08:10:54;21.02;;;12.73;;
23490;SDS011;14683;50.038;8.078;2023-03-12T08:13:20;27.02;;;14.88;;
23490;SDS011;14683;50.038;8.078;2023-03-12T08:15:48;22.55;;;15.07;;
23490;SDS011;14683;50.038;8.078;2023-03-12T08:18:16;22.40;;;14.48;;
23490;SDS011;14683;50.038;8.078;2023-03-12T08:20:43;22.25;;;15.10;;
23490;SDS011;14683;50.038;8.078;2023-03-12T08:23:09;21.85;;;14.25;;
23490;SDS011;14683;50.038;8.078;2023-03-12T08:25:35;33.50;;;18.30;;
23490;SDS011;14683;50.038;8.078;2023-03-12T08:28:02;23.88;;;15.32;;
23490;SDS011;14683;50.038;8.078;2023-03-12T08:30:29;21.73;;;13.32;;
23490;SDS011;14683;50.038;8.078;2023-03-12T08:32:56;24.23;;;12.32;;
23490;SDS011;14683;50.038;8.078;2023-03-12T08:35:22;16.42;;;11.65;;
23490;SDS011;14683;50.038;8.078;2023-03-12T08:37:48;24.17;;;13.73;;
23490;SDS011;14683;50.038;8.078;2023-03-12T08:40:14;23.60;;;12.65;;
23490;SDS011;14683;50.038;8.078;2023-03-12T08:42:44;21.17;;;12.70;;
23490;SDS011;14683;50.038;8.078;2023-03-12T08:45:10;21.80;;;13.43;;
23490;SDS011;14683;50.038;8.078;2023-03-12T08:47:37;21.17;;;13.68;;
23490;SDS011;14683;50.038;8.078;2023-03-12T08:50:06;23.50;;;13.73;;
23490;SDS011;14683;50.038;8.078;2023-03-12T08:52:33;22.08;;;13.45;;
23490;SDS011;14683;50.038;8.078;2023-03-12T08:54:59;22.05;;;13.25;;
23490;SDS011;14683;50.038;8.078;2023-03-12T08:57:25;20.65;;;13.57;;
23490;SDS011;14683;50.038;8.078;2023-03-12T08:59:51;23.90;;;13.02;;
23490;SDS011;14683;50.038;8.078;2023-03-12T09:02:17;22.10;;;12.93;;
23490;SDS011;14683;50.038;8.078;2023-03-12T09:04:46;26.00;;;14.07;;
23490;SDS011;14683;50.038;8.078;2023-03-12T09:07:12;30.63;;;14.32;;
23490;SDS011;14683;50.038;8.078;2023-03-12T09:09:39;23.13;;;13.73;;
23490;SDS011;14683;50.038;8.078;2023-03-12T09:12:05;28.10;;;14.13;;
23490;SDS011;14683;50.038;8.078;2023-03-12T09:14:31;25.02;;;13.10;;
23490;SDS011;14683;50.038;8.078;2023-03-12T09:16:57;21.63;;;13.98;;
23490;SDS011;14683;50.038;8.078;2023-03-12T09:19:23;23.73;;;14.27;;
23490;SDS011;14683;50.038;8.078;2023-03-12T09:21:49;24.30;;;12.90;;
23490;SDS011;14683;50.038;8.078;2023-03-12T09:24:15;20.27;;;13.38;;
23490;SDS011;14683;50.038;8.078;2023-03-12T09:26:41;20.85;;;12.95;;
23490;SDS011;14683;50.038;8.078;2023-03-12T09:29:07;20.73;;;12.88;;
23490;SDS011;14683;50.038;8.078;2023-03-12T09:31:33;20.60;;;13.63;;
23490;SDS011;14683;50.038;8.078;2023-03-12T09:34:01;23.60;;;12.48;;
23490;SDS011;14683;50.038;8.078;2023-03-12T09:36:27;18.27;;;12.68;;
23490;SDS011;14683;50.038;8.078;2023-03-12T09:38:53;21.60;;;13.15;;
23490;SDS011;14683;50.038;8.078;2023-03-12T09:41:24;22.23;;;12.82;;
23490;SDS011;14683;50.038;8.078;2023-03-12T09:46:49;24.95;;;14.82;;
23490;SDS011;14683;50.038;8.078;2023-03-12T09:49:23;27.90;;;14.90;;
23490;SDS011;14683;50.038;8.078;2023-03-12T09:51:57;24.75;;;13.95;;
23490;SDS011;14683;50.038;8.078;2023-03-12T09:56:57;24.50;;;15.45;;
23490;SDS011;14683;50.038;8.078;2023-03-12T09:59:25;24.23;;;14.80;;
23490;SDS011;14683;50.038;8.078;2023-03-12T10:01:51;23.25;;;14.40;;
23490;SDS011;14683;50.038;8.078;2023-03-12T10:04:23;21.98;;;14.95;;
23490;SDS011;14683;50.038;8.078;2023-03-12T10:17:34;28.05;;;16.77;;
23490;SDS011;14683;50.038;8.078;2023-03-12T10:26:11;31.45;;;18.38;;
23490;SDS011;14683;50.038;8.078;2023-03-12T10:31:11;29.10;;;16.80;;
23490;SDS011;14683;50.038;8.078;2023-03-12T10:33:45;26.48;;;16.48;;
23490;SDS011;14683;50.038;8.078;2023-03-12T10:36:19;28.02;;;17.30;;
23490;SDS011;14683;50.038;8.078;2023-03-12T10:38:48;28.75;;;16.17;;
23490;SDS011;14683;50.038;8.078;2023-03-12T10:41:16;28.38;;;16.65;;
23490;SDS011;14683;50.038;8.078;2023-03-12T10:43:47;24.33;;;15.15;;
23490;SDS011;14683;50.038;8.078;2023-03-12T10:48:39;25.30;;;14.60;;
23490;SDS011;14683;50.038;8.078;2023-03-12T10:51:06;29.27;;;15.50;;
23490;SDS011;14683;50.038;8.078;2023-03-12T10:53:40;24.17;;;15.55;;
23490;SDS011;14683;50.038;8.078;2023-03-12T10:56:10;22.88;;;14.82;;
23490;SDS011;14683;50.038;8.078;2023-03-12T10:58:41;20.48;;;14.48;;
23490;SDS011;14683;50.038;8.078;2023-03-12T11:03:41;19.42;;;13.68;;
23490;SDS011;14683;50.038;8.078;2023-03-12T11:06:08;16.95;;;12.60;;
23490;SDS011;14683;50.038;8.078;2023-03-12T11:08:40;18.45;;;12.35;;
23490;SDS011;14683;50.038;8.078;2023-03-12T11:11:08;18.70;;;12.65;;
23490;SDS011;14683;50.038;8.078;2023-03-12T11:13:35;14.70;;;11.65;;
23490;SDS011;14683;50.038;8.078;2023-03-12T11:18:52;16.45;;;11.63;;
23490;SDS011;14683;50.038;8.078;2023-03-12T11:21:21;15.48;;;11.10;;
23490;SDS011;14683;50.038;8.078;2023-03-12T11:24:20;13.18;;;9.60;;
23490;SDS011;14683;50.038;8.078;2023-03-12T11:26:43;12.77;;;10.23;;
23490;SDS011;14683;50.038;8.078;2023-03-12T11:29:26;15.27;;;10.60;;
23490;SDS011;14683;50.038;8.078;2023-03-12T11:34:49;15.52;;;10.35;;
23490;SDS011;14683;50.038;8.078;2023-03-12T11:42:29;13.20;;;10.30;;
23490;SDS011;14683;50.038;8.078;2023-03-12T11:50:16;14.73;;;9.93;;
23490;SDS011;14683;50.038;8.078;2023-03-12T11:52:53;17.85;;;10.70;;
23490;SDS011;14683;50.038;8.078;2023-03-12T12:07:07;13.55;;;10.07;;
23490;SDS011;14683;50.038;8.078;2023-03-12T12:09:55;15.68;;;11.30;;
23490;SDS011;14683;50.038;8.078;2023-03-12T12:15:17;18.58;;;12.75;;
23490;SDS011;14683;50.038;8.078;2023-03-12T12:23:41;20.27;;;13.82;;
23490;SDS011;14683;50.038;8.078;2023-03-12T12:26:17;20.45;;;13.10;;
23490;SDS011;14683;50.038;8.078;2023-03-12T12:31:49;20.42;;;11.88;;
23490;SDS011;14683;50.038;8.078;2023-03-12T12:36:53;19.00;;;12.02;;
23490;SDS011;14683;50.038;8.078;2023-03-12T12:39:39;15.32;;;11.07;;
23490;SDS011;14683;50.038;8.078;2023-03-12T12:42:10;16.75;;;10.80;;
23490;SDS011;14683;50.038;8.078;2023-03-12T12:44:45;16.75;;;11.15;;
23490;SDS011;14683;50.038;8.078;2023-03-12T12:47:15;17.45;;;11.20;;
23490;SDS011;14683;50.038;8.078;2023-03-12T12:49:47;16.27;;;11.07;;
23490;SDS011;14683;50.038;8.078;2023-03-12T12:52:16;16.85;;;11.38;;
23490;SDS011;14683;50.038;8.078;2023-03-12T12:57:17;17.42;;;11.80;;
23490;SDS011;14683;50.038;8.078;2023-03-12T13:02:48;18.13;;;11.20;;
23490;SDS011;14683;50.038;8.078;2023-03-12T13:05:18;15.68;;;10.93;;
23490;SDS011;14683;50.038;8.078;2023-03-12T13:08:00;13.47;;;10.33;;
23490;SDS011;14683;50.038;8.078;2023-03-12T13:12:57;11.48;;;9.10;;
23490;SDS011;14683;50.038;8.078;2023-03-12T13:22:52;16.50;;;9.50;;
23490;SDS011;14683;50.038;8.078;2023-03-12T13:28:26;14.95;;;10.13;;
23490;SDS011;14683;50.038;8.078;2023-03-12T13:31:00;14.90;;;10.23;;
23490;SDS011;14683;50.038;8.078;2023-03-12T13:33:44;13.90;;;10.50;;
23490;SDS011;14683;50.038;8.078;2023-03-12T13:39:42;15.43;;;10.15;;
23490;SDS011;14683;50.038;8.078;2023-03-12T13:41:49;15.50;;;10.85;;
23490;SDS011;14683;50.038;8.078;2023-03-12T13:46:56;18.88;;;11.23;;
23490;SDS011;14683;50.038;8.078;2023-03-12T13:49:25;14.70;;;11.07;;
23490;SDS011;14683;50.038;8.078;2023-03-12T13:52:07;18.88;;;11.82;;
23490;SDS011;14683;50.038;8.078;2023-03-12T13:54:40;15.30;;;12.07;;
23490;SDS011;14683;50.038;8.078;2023-03-12T13:57:55;18.30;;;12.02;;
23490;SDS011;14683;50.038;8.078;2023-03-12T14:00:11;15.30;;;11.25;;
23490;SDS011;14683;50.038;8.078;2023-03-12T14:02:51;14.43;;;9.77;;
23490;SDS011;14683;50.038;8.078;2023-03-12T14:05:19;14.63;;;9.52;;
23490;SDS011;14683;50.038;8.078;2023-03-12T14:08:09;13.18;;;9.68;;
23490;SDS011;14683;50.038;8.078;2023-03-12T14:10:55;12.57;;;9.07;;
23490;SDS011;14683;50.038;8.078;2023-03-12T14:16:05;15.00;;;10.32;;
23490;SDS011;14683;50.038;8.078;2023-03-12T14:18:33;17.35;;;11.43;;
23490;SDS011;14683;50.038;8.078;2023-03-12T14:21:00;16.30;;;10.82;;
23490;SDS011;14683;50.038;8.078;2023-03-12T14:23:34;13.40;;;9.55;;
23490;SDS011;14683;50.038;8.078;2023-03-12T14:26:02;16.15;;;9.63;;
23490;SDS011;14683;50.038;8.078;2023-03-12T14:28:29;16.55;;;9.32;;
23490;SDS011;14683;50.038;8.078;2023-03-12T14:30:58;13.30;;;9.90;;
23490;SDS011;14683;50.038;8.078;2023-03-12T14:33:26;16.75;;;10.75;;
23490;SDS011;14683;50.038;8.078;2023-03-12T14:36:15;16.42;;;10.68;;
23490;SDS011;14683;50.038;8.078;2023-03-12T14:41:17;17.65;;;12.05;;
23490;SDS011;14683;50.038;8.078;2023-03-12T14:43:49;17.48;;;10.43;;
23490;SDS011;14683;50.038;8.078;2023-03-12T14:46:17;17.38;;;10.13;;
23490;SDS011;14683;50.038;8.078;2023-03-12T14:48:48;15.85;;;10.88;;
23490;SDS011;14683;50.038;8.078;2023-03-12T14:53:50;18.02;;;11.70;;
23490;SDS011;14683;50.038;8.078;2023-03-12T14:56:29;22.55;;;12.63;;
23490;SDS011;14683;50.038;8.078;2023-03-12T14:58:58;18.33;;;11.80;;
23490;SDS011;14683;50.038;8.078;2023-03-12T15:01:27;13.13;;;10.05;;
23490;SDS011;14683;50.038;8.078;2023-03-12T15:04:04;17.33;;;11.82;;
23490;SDS011;14683;50.038;8.078;2023-03-12T15:06:34;26.33;;;14.38;;
23490;SDS011;14683;50.038;8.078;2023-03-12T15:09:03;20.73;;;14.77;;
23490;SDS011;14683;50.038;8.078;2023-03-12T15:11:32;20.55;;;14.38;;
23490;SDS011;14683;50.038;8.078;2023-03-12T15:14:07;19.95;;;13.82;;
23490;SDS011;14683;50.038;8.078;2023-03-12T15:16:34;23.52;;;13.20;;
23490;SDS011;14683;50.038;8.078;2023-03-12T15:19:00;17.35;;;11.55;;
23490;SDS011;14683;50.038;8.078;2023-03-12T15:21:27;17.13;;;11.18;;
23490;SDS011;14683;50.038;8.078;2023-03-12T15:31:20;19.27;;;11.10;;
23490;SDS011;14683;50.038;8.078;2023-03-12T15:36:24;17.90;;;12.30;;
23490;SDS011;14683;50.038;8.078;2023-03-12T15:39:02;14.77;;;11.02;;
23490;SDS011;14683;50.038;8.078;2023-03-12T15:41:35;14.80;;;8.77;;
23490;SDS011;14683;50.038;8.078;2023-03-12T15:46:51;16.38;;;9.35;;
23490;SDS011;14683;50.038;8.078;2023-03-12T15:49:22;12.45;;;8.07;;
23490;SDS011;14683;50.038;8.078;2023-03-12T15:52:23;12.93;;;8.45;;
23490;SDS011;14683;50.038;8.078;2023-03-12T15:57:24;15.55;;;10.65;;
23490;SDS011;14683;50.038;8.078;2023-03-12T16:00:05;12.73;;;9.65;;
23490;SDS011;14683;50.038;8.078;2023-03-12T16:02:33;15.63;;;10.27;;
23490;SDS011;14683;50.038;8.078;2023-03-12T16:05:03;14.80;;;9.50;;
23490;SDS011;14683;50.038;8.078;2023-03-12T16:07:29;13.32;;;8.90;;
23490;SDS011;14683;50.038;8.078;2023-03-12T16:12:21;14.55;;;8.57;;
23490;SDS011;14683;50.038;8.078;2023-03-12T16:17:14;16.02;;;8.25;;
23490;SDS011;14683;50.038;8.078;2023-03-12T16:19:42;12.00;;;8.60;;
23490;SDS011;14683;50.038;8.078;2023-03-12T16:24:34;14.48;;;10.63;;
23490;SDS011;14683;50.038;8.078;2023-03-12T16:27:00;19.67;;;11.95;;
23490;SDS011;14683;50.038;8.078;2023-03-12T16:29:34;16.80;;;11.20;;
23490;SDS011;14683;50.038;8.078;2023-03-12T16:32:01;19.25;;;12.05;;
23490;SDS011;14683;50.038;8.078;2023-03-12T16:34:27;20.80;;;13.75;;
23490;SDS011;14683;50.038;8.078;2023-03-12T16:39:19;18.55;;;13.52;;
23490;SDS011;14683;50.038;8.078;2023-03-12T16:44:15;31.83;;;20.35;;
23490;SDS011;14683;50.038;8.078;2023-03-12T16:46:44;31.65;;;17.90;;
23490;SDS011;14683;50.038;8.078;2023-03-12T16:49:14;24.73;;;16.27;;
23490;SDS011;14683;50.038;8.078;2023-03-12T16:51:41;37.60;;;23.00;;
23490;SDS011;14683;50.038;8.078;2023-03-12T16:56:33;27.95;;;18.17;;
23490;SDS011;14683;50.038;8.078;2023-03-12T16:59:04;25.13;;;16.98;;
23490;SDS011;14683;50.038;8.078;2023-03-12T17:01:32;25.40;;;16.48;;
23490;SDS011;14683;50.038;8.078;2023-03-12T17:03:59;23.15;;;16.42;;
23490;SDS011;14683;50.038;8.078;2023-03-12T17:08:52;27.27;;;18.63;;
23490;SDS011;14683;50.038;8.078;2023-03-12T17:11:22;34.92;;;20.60;;
23490;SDS011;14683;50.038;8.078;2023-03-12T17:13:52;33.35;;;20.63;;
23490;SDS011;14683;50.038;8.078;2023-03-12T17:16:20;31.58;;;20.27;;
23490;SDS011;14683;50.038;8.078;2023-03-12T17:18:46;33.40;;;21.63;;
23490;SDS011;14683;50.038;8.078;2023-03-12T17:23:39;32.85;;;20.52;;
23490;SDS011;14683;50.038;8.078;2023-03-12T17:26:05;38.80;;;23.88;;
23490;SDS011;14683;50.038;8.078;2023-03-12T17:30:57;53.55;;;31.90;;
23490;SDS011;14683;50.038;8.078;2023-03-12T17:35:57;34.22;;;22.65;;
23490;SDS011;14683;50.038;8.078;2023-03-12T17:38:24;33.20;;;21.23;;
23490;SDS011;14683;50.038;8.078;2023-03-12T17:40:50;34.60;;;21.35;;
23490;SDS011;14683;50.038;8.078;2023-03-12T17:45:42;35.80;;;18.65;;
23490;SDS011;14683;50.038;8.078;2023-03-12T17:48:08;27.83;;;18.10;;
23490;SDS011;14683;50.038;8.078;2023-03-12T17:50:34;30.67;;;18.52;;
23490;SDS011;14683;50.038;8.078;2023-03-12T17:53:01;29.23;;;17.35;;
23490;SDS011;14683;50.038;8.078;2023-03-12T17:55:27;35.55;;;19.35;;
23490;SDS011;14683;50.038;8.078;2023-03-12T18:00:19;36.95;;;19.17;;
23490;SDS011;14683;50.038;8.078;2023-03-12T18:02:47;32.25;;;18.75;;
23490;SDS011;14683;50.038;8.078;2023-03-12T18:05:13;31.88;;;17.10;;
23490;SDS011;14683;50.038;8.078;2023-03-12T18:10:06;25.95;;;10.57;;
23490;SDS011;14683;50.038;8.078;2023-03-12T18:12:35;22.90;;;9.80;;
23490;SDS011;14683;50.038;8.078;2023-03-12T18:15:03;19.55;;;10.00;;
23490;SDS011;14683;50.038;8.078;2023-03-12T18:19:57;26.38;;;11.55;;
23490;SDS011;14683;50.038;8.078;2023-03-12T18:22:23;20.85;;;10.80;;
23490;SDS011;14683;50.038;8.078;2023-03-12T18:24:49;21.02;;;11.68;;
23490;SDS011;14683;50.038;8.078;2023-03-12T18:29:41;21.77;;;10.77;;
23490;SDS011;14683;50.038;8.078;2023-03-12T18:32:07;18.10;;;10.35;;
23490;SDS011;14683;50.038;8.078;2023-03-12T18:36:59;24.90;;;9.93;;
23490;SDS011;14683;50.038;8.078;2023-03-12T18:39:25;22.15;;;8.60;;
23490;SDS011;14683;50.038;8.078;2023-03-12T18:41:53;20.08;;;9.75;;
23490;SDS011;14683;50.038;8.078;2023-03-12T18:44:20;22.15;;;8.95;;
23490;SDS011;14683;50.038;8.078;2023-03-12T18:46:46;19.48;;;7.97;;
23490;SDS011;14683;50.038;8.078;2023-03-12T18:49:13;26.52;;;8.38;;
23490;SDS011;14683;50.038;8.078;2023-03-12T18:51:39;20.42;;;7.20;;
23490;SDS011;14683;50.038;8.078;2023-03-12T18:54:05;20.13;;;7.18;;
23490;SDS011;14683;50.038;8.078;2023-03-12T18:56:31;17.67;;;6.68;;
23490;SDS011;14683;50.038;8.078;2023-03-12T18:58:57;22.00;;;7.32;;
23490;SDS011;14683;50.038;8.078;2023-03-12T19:03:50;16.00;;;5.03;;
23490;SDS011;14683;50.038;8.078;2023-03-12T19:06:16;17.02;;;5.57;;
23490;SDS011;14683;50.038;8.078;2023-03-12T19:11:09;19.98;;;5.85;;
23490;SDS011;14683;50.038;8.078;2023-03-12T19:13:37;21.38;;;6.22;;
23490;SDS011;14683;50.038;8.078;2023-03-12T19:16:05;19.55;;;5.85;;
23490;SDS011;14683;50.038;8.078;2023-03-12T19:18:35;20.83;;;6.60;;
23490;SDS011;14683;50.038;8.078;2023-03-12T19:21:02;16.58;;;5.95;;
23490;SDS011;14683;50.038;8.078;2023-03-12T19:23:28;15.95;;;5.63;;
23490;SDS011;14683;50.038;8.078;2023-03-12T19:25:54;15.38;;;5.25;;
23490;SDS011;14683;50.038;8.078;2023-03-12T19:28:20;17.63;;;5.25;;
23490;SDS011;14683;50.038;8.078;2023-03-12T19:30:46;22.98;;;6.28;;
23490;SDS011;14683;50.038;8.078;2023-03-12T19:33:12;17.05;;;5.95;;
23490;SDS011;14683;50.038;8.078;2023-03-12T19:35:39;20.65;;;6.90;;
23490;SDS011;14683;50.038;8.078;2023-03-12T19:38:06;29.05;;;8.88;;
23490;SDS011;14683;50.038;8.078;2023-03-12T19:40:33;27.77;;;9.85;;
23490;SDS011;14683;50.038;8.078;2023-03-12T19:42:59;30.00;;;9.80;;
23490;SDS011;14683;50.038;8.078;2023-03-12T19:45:26;21.98;;;6.53;;
23490;SDS011;14683;50.038;8.078;2023-03-12T19:47:52;19.80;;;5.80;;
23490;SDS011;14683;50.038;8.078;2023-03-12T19:52:45;15.35;;;5.43;;
23490;SDS011;14683;50.038;8.078;2023-03-12T19:55:11;18.10;;;5.07;;
23490;SDS011;14683;50.038;8.078;2023-03-12T20:00:07;18.23;;;5.70;;
23490;SDS011;14683;50.038;8.078;2023-03-12T20:02:35;22.08;;;5.10;;
23490;SDS011;14683;50.038;8.078;2023-03-12T20:05:01;22.38;;;4.97;;
23490;SDS011;14683;50.038;8.078;2023-03-12T20:07:28;22.50;;;5.38;;
23490;SDS011;14683;50.038;8.078;2023-03-12T20:09:54;19.58;;;4.80;;
23490;SDS011;14683;50.038;8.078;2023-03-12T20:14:46;22.33;;;4.90;;
23490;SDS011;14683;50.038;8.078;2023-03-12T20:17:12;22.02;;;7.60;;
23490;SDS011;14683;50.038;8.078;2023-03-12T20:19:39;20.42;;;6.20;;
23490;SDS011;14683;50.038;8.078;2023-03-12T20:22:05;19.65;;;5.82;;
23490;SDS011;14683;50.038;8.078;2023-03-12T20:26:57;17.00;;;5.25;;
23490;SDS011;14683;50.038;8.078;2023-03-12T20:29:23;24.67;;;6.65;;
23490;SDS011;14683;50.038;8.078;2023-03-12T20:31:50;26.58;;;6.70;;
23490;SDS011;14683;50.038;8.078;2023-03-12T20:34:16;26.70;;;10.10;;
23490;SDS011;14683;50.038;8.078;2023-03-12T20:36:42;21.50;;;7.95;;
23490;SDS011;14683;50.038;8.078;2023-03-12T20:39:08;26.50;;;11.63;;
23490;SDS011;14683;50.038;8.078;2023-03-12T20:41:34;34.25;;;17.38;;
23490;SDS011;14683;50.038;8.078;2023-03-12T20:44:00;23.15;;;9.18;;
23490;SDS011;14683;50.038;8.078;2023-03-12T20:46:26;27.90;;;9.07;;
23490;SDS011;14683;50.038;8.078;2023-03-12T20:48:52;25.08;;;5.65;;
23490;SDS011;14683;50.038;8.078;2023-03-12T20:53:44;22.10;;;5.10;;
23490;SDS011;14683;50.038;8.078;2023-03-12T20:56:11;18.17;;;4.60;;
23490;SDS011;14683;50.038;8.078;2023-03-12T21:01:03;19.67;;;4.47;;
23490;SDS011;14683;50.038;8.078;2023-03-12T21:03:30;22.27;;;5.65;;
23490;SDS011;14683;50.038;8.078;2023-03-12T21:05:57;20.10;;;4.30;;
23490;SDS011;14683;50.038;8.078;2023-03-12T21:08:24;18.48;;;4.43;;
23490;SDS011;14683;50.038;8.078;2023-03-12T21:13:17;18.45;;;4.88;;
23490;SDS011;14683;50.038;8.078;2023-03-12T21:15:44;20.88;;;4.25;;
23490;SDS011;14683;50.038;8.078;2023-03-12T21:20:36;22.77;;;4.90;;
23490;SDS011;14683;50.038;8.078;2023-03-12T21:23:03;18.20;;;4.45;;
23490;SDS011;14683;50.038;8.078;2023-03-12T21:25:33;21.92;;;4.60;;
23490;SDS011;14683;50.038;8.078;2023-03-12T21:28:01;21.33;;;4.55;;
23490;SDS011;14683;50.038;8.078;2023-03-12T21:30:27;19.35;;;5.25;;
23490;SDS011;14683;50.038;8.078;2023-03-12T21:32:54;19.20;;;4.45;;
23490;SDS011;14683;50.038;8.078;2023-03-12T21:35:20;21.35;;;4.68;;
23490;SDS011;14683;50.038;8.078;2023-03-12T21:37:46;26.85;;;5.22;;
23490;SDS011;14683;50.038;8.078;2023-03-12T21:40:13;22.00;;;4.28;;
23490;SDS011;14683;50.038;8.078;2023-03-12T21:42:39;18.65;;;4.38;;
